Time;durP1;ratioP1;P1;durP2;ratioP2;P2;SDS_P1;SDS_P2;PMS_P1;PMS_P2;Temp;Humidity;BMP_temperature;BMP_pressure;BME280_temperature;BME280_humidity;BME280_pressure;Samples;Min_cycle;Max_cycle;Signal;HPM_P1;HPM_P2
2023/07/09 00:02:18;;;;;;;9.75;6.32;;;21.50;99.90;;;;;;5059138;28;20166;-79
2023/07/09 00:04:44;;;;;;;11.23;6.18;;;21.40;99.90;;;;;;5076212;28;20281;-79
2023/07/09 00:07:19;;;;;;;9.85;5.70;;;21.40;99.90;;;;;;5075995;28;20209;-79
2023/07/09 00:09:45;;;;;;;10.02;5.80;;;21.30;99.90;;;;;;5058905;28;20177;-79
2023/07/09 00:12:16;;;;;;;10.07;6.05;;;21.20;99.90;;;;;;5075694;28;20158;-79
2023/07/09 00:14:42;;;;;;;9.15;5.80;;;21.20;99.90;;;;;;5057756;28;20218;-79
2023/07/09 00:17:11;;;;;;;10.73;6.13;;;21.20;99.90;;;;;;5075659;28;20261;-79
2023/07/09 00:19:37;;;;;;;9.15;5.45;;;21.20;99.90;;;;;;5075731;28;20631;-79
2023/07/09 00:22:10;;;;;;;9.25;5.82;;;21.10;99.90;;;;;;5057695;28;20174;-79
2023/07/09 00:24:36;;;;;;;11.32;5.70;;;20.90;99.90;;;;;;5057697;28;20558;-79
2023/07/09 00:27:02;;;;;;;9.20;6.22;;;20.70;99.90;;;;;;5057466;28;20178;-79
2023/07/09 00:29:28;;;;;;;10.38;6.18;;;20.70;99.90;;;;;;5057459;28;20181;-79
2023/07/09 00:31:53;;;;;;;9.18;5.65;;;20.70;99.90;;;;;;5057186;28;20208;-79
2023/07/09 00:34:21;;;;;;;9.82;5.97;;;20.70;99.90;;;;;;5075179;28;20571;-79
2023/07/09 00:36:47;;;;;;;8.77;5.82;;;20.70;99.90;;;;;;5057271;28;20255;-79
2023/07/09 00:39:17;;;;;;;10.43;6.35;;;20.60;99.90;;;;;;5074575;28;20191;-79
2023/07/09 00:41:45;;;;;;;11.13;5.95;;;20.50;99.90;;;;;;5074583;28;20180;-79
2023/07/09 00:44:20;;;;;;;9.77;5.70;;;20.40;99.90;;;;;;5056810;28;20285;-79
2023/07/09 00:46:49;;;;;;;12.23;6.50;;;20.40;99.90;;;;;;5056971;28;20188;-79
2023/07/09 00:49:36;;;;;;;12.55;6.40;;;20.40;99.90;;;;;;5056926;28;20272;-78
2023/07/09 00:52:14;;;;;;;22.63;12.05;;;20.30;99.90;;;;;;5055722;28;20189;-79
2023/07/09 00:54:46;;;;;;;16.63;10.43;;;20.30;99.90;;;;;;5074465;28;20205;-79
2023/07/09 00:57:18;;;;;;;14.48;8.68;;;20.20;99.90;;;;;;5056458;28;20205;-79
2023/07/09 00:59:51;;;;;;;12.05;7.88;;;20.20;99.90;;;;;;5074780;28;20161;-79
2023/07/09 01:02:22;;;;;;;15.02;8.07;;;20.20;99.90;;;;;;5056602;28;20166;-79
2023/07/09 01:04:51;;;;;;;10.43;7.40;;;20.20;99.90;;;;;;5074933;28;20197;-79
2023/07/09 01:07:19;;;;;;;12.25;7.30;;;20.30;99.90;;;;;;5060191;28;20185;-79
2023/07/09 01:09:45;;;;;;;10.27;7.03;;;20.30;99.90;;;;;;5054740;28;20178;-79
2023/07/09 01:12:12;;;;;;;10.82;6.93;;;20.20;99.90;;;;;;5036529;28;20209;-79
2023/07/09 01:14:38;;;;;;;11.07;6.95;;;20.10;99.90;;;;;;5037043;28;20233;-79
2023/07/09 01:17:07;;;;;;;11.07;6.78;;;20.10;99.90;;;;;;5055234;28;20170;-79
2023/07/09 01:19:44;;;;;;;9.80;6.53;;;20.00;99.90;;;;;;5037290;28;20186;-79
2023/07/09 01:22:17;;;;;;;10.48;5.97;;;20.00;99.90;;;;;;5057390;28;20174;-79
2023/07/09 01:24:49;;;;;;;9.45;6.20;;;20.00;99.90;;;;;;5040695;28;20284;-79
2023/07/09 01:27:17;;;;;;;10.85;6.05;;;20.00;99.90;;;;;;5058791;28;20324;-79
2023/07/09 01:29:48;;;;;;;10.57;6.68;;;19.80;99.90;;;;;;5059002;28;20197;-79
2023/07/09 01:32:19;;;;;;;11.30;7.43;;;19.80;99.90;;;;;;5040907;28;20254;-79
2023/07/09 01:34:52;;;;;;;9.98;6.20;;;19.80;99.90;;;;;;5040810;28;20210;-79
2023/07/09 01:37:23;;;;;;;12.55;6.70;;;19.80;99.90;;;;;;5055306;28;20703;-79
2023/07/09 01:39:51;;;;;;;9.18;6.32;;;19.70;99.90;;;;;;5078589;28;20158;-79
2023/07/09 01:42:21;;;;;;;10.35;6.03;;;19.70;99.90;;;;;;5060593;28;20174;-79
2023/07/09 01:44:49;;;;;;;13.98;6.80;;;19.70;99.90;;;;;;5060574;28;20201;-79
2023/07/09 01:47:15;;;;;;;10.98;6.15;;;19.70;99.90;;;;;;5060597;28;20186;-79
2023/07/09 01:49:41;;;;;;;10.00;5.88;;;19.70;99.90;;;;;;5060428;28;20205;-79
2023/07/09 01:52:10;;;;;;;10.50;6.07;;;19.70;99.90;;;;;;5060286;28;20617;-79
2023/07/09 01:54:37;;;;;;;11.70;6.22;;;19.60;99.90;;;;;;5060095;28;20245;-79
2023/07/09 01:57:35;;;;;;;10.65;6.32;;;19.60;99.90;;;;;;5078164;28;20174;-79
2023/07/09 02:00:05;;;;;;;11.45;5.78;;;19.60;99.90;;;;;;5059857;28;20190;-79
2023/07/09 02:02:32;;;;;;;12.25;6.28;;;19.60;99.90;;;;;;5060078;28;20170;-79
2023/07/09 02:04:58;;;;;;;9.82;6.00;;;19.50;99.90;;;;;;5060221;28;20197;-79
2023/07/09 02:07:25;;;;;;;11.20;6.05;;;19.50;99.90;;;;;;5078207;28;20265;-79
2023/07/09 02:09:51;;;;;;;10.30;6.28;;;19.40;99.90;;;;;;5077582;28;20256;-79
2023/07/09 02:12:18;;;;;;;9.45;5.90;;;19.40;99.90;;;;;;5078086;28;20177;-79
2023/07/09 02:14:45;;;;;;;8.70;6.13;;;19.40;99.90;;;;;;5060441;28;20216;-79
2023/07/09 02:17:13;;;;;;;11.85;6.10;;;19.30;99.90;;;;;;5060352;28;20174;-79
2023/07/09 02:19:39;;;;;;;10.02;6.22;;;19.20;99.90;;;;;;5077996;28;20251;-79
2023/07/09 02:22:06;;;;;;;9.27;5.55;;;19.20;99.90;;;;;;5059866;28;20680;-79
2023/07/09 02:24:32;;;;;;;9.73;6.00;;;19.20;99.90;;;;;;5060071;28;20244;-79
2023/07/09 02:26:59;;;;;;;11.80;6.05;;;19.10;99.90;;;;;;5059979;28;20592;-79
2023/07/09 02:29:26;;;;;;;9.43;5.65;;;19.00;99.90;;;;;;5059925;28;20188;-79
2023/07/09 02:31:54;;;;;;;10.25;5.72;;;19.00;99.90;;;;;;5077646;28;20189;-79
2023/07/09 02:34:19;;;;;;;10.52;6.70;;;19.10;99.90;;;;;;5076783;28;20197;-79
2023/07/09 02:36:45;;;;;;;10.45;5.60;;;19.10;99.90;;;;;;5078318;28;20169;-79
2023/07/09 02:39:13;;;;;;;12.65;6.32;;;19.10;99.90;;;;;;5077913;28;20303;-78
2023/07/09 02:41:40;;;;;;;10.35;5.63;;;19.00;99.90;;;;;;5059983;28;20185;-79
2023/07/09 02:44:06;;;;;;;9.38;6.22;;;19.00;99.90;;;;;;5060835;28;20206;-79
2023/07/09 02:46:31;;;;;;;11.35;5.85;;;19.00;99.90;;;;;;5060696;28;20672;-79
2023/07/09 02:48:57;;;;;;;8.02;5.50;;;19.10;99.90;;;;;;5061374;28;20174;-79
2023/07/09 02:51:26;;;;;;;9.77;5.75;;;19.00;99.90;;;;;;5061152;28;20645;-79
2023/07/09 02:53:56;;;;;;;8.85;5.70;;;19.00;99.90;;;;;;5066660;28;20209;-78
2023/07/09 02:56:22;;;;;;;9.95;5.93;;;19.00;99.90;;;;;;5076217;28;20180;-79
2023/07/09 02:58:49;;;;;;;12.48;5.85;;;19.10;99.90;;;;;;5063752;28;20181;-79
2023/07/09 03:01:14;;;;;;;10.32;6.18;;;19.00;99.90;;;;;;5079028;28;20541;-79
2023/07/09 03:03:40;;;;;;;12.13;6.05;;;19.00;99.90;;;;;;5078510;28;20190;-79
2023/07/09 03:06:06;;;;;;;10.45;5.68;;;18.90;99.90;;;;;;5060934;28;20177;-79
2023/07/09 03:08:32;;;;;;;12.95;6.15;;;18.90;99.90;;;;;;5061823;28;20656;-79
2023/07/09 03:10:59;;;;;;;10.00;6.40;;;19.00;99.90;;;;;;5060594;28;20177;-79
2023/07/09 03:13:25;;;;;;;9.55;6.38;;;19.00;99.90;;;;;;5077180;28;20190;-79
2023/07/09 03:15:58;;;;;;;11.95;6.35;;;18.90;99.90;;;;;;5059480;28;20181;-78
2023/07/09 03:18:24;;;;;;;14.30;6.47;;;18.80;99.90;;;;;;5077019;28;20220;-78
2023/07/09 03:20:50;;;;;;;10.02;5.72;;;18.70;99.90;;;;;;5058764;28;20596;-79
2023/07/09 03:23:16;;;;;;;10.00;5.75;;;18.90;99.90;;;;;;5058987;28;20902;-79
2023/07/09 03:25:43;;;;;;;10.98;5.85;;;18.90;99.90;;;;;;5058437;28;20185;-79
2023/07/09 03:28:10;;;;;;;10.40;6.03;;;18.80;99.90;;;;;;5058481;28;20178;-79
2023/07/09 03:30:41;;;;;;;11.27;6.25;;;18.80;99.90;;;;;;5076597;28;20178;-79
2023/07/09 03:33:07;;;;;;;10.35;6.25;;;18.70;99.90;;;;;;5076667;28;20162;-79
2023/07/09 03:35:34;;;;;;;10.98;5.45;;;18.60;99.90;;;;;;5076841;28;20208;-79
2023/07/09 03:38:00;;;;;;;8.77;5.53;;;18.70;99.90;;;;;;5058520;28;20633;-79
2023/07/09 03:40:26;;;;;;;9.25;6.00;;;18.80;99.90;;;;;;5077518;28;20173;-79
2023/07/09 03:42:52;;;;;;;9.85;5.78;;;18.80;99.90;;;;;;5076420;28;20248;-79
2023/07/09 03:45:17;;;;;;;10.32;6.15;;;18.70;99.90;;;;;;5075986;28;20190;-79
2023/07/09 03:47:43;;;;;;;14.10;6.40;;;18.60;99.90;;;;;;5076259;28;20209;-79
2023/07/09 03:50:10;;;;;;;12.90;6.10;;;18.50;99.90;;;;;;5058816;28;20180;-79
2023/07/09 03:52:36;;;;;;;9.63;5.85;;;18.50;99.90;;;;;;5057637;28;20181;-79
2023/07/09 03:55:04;;;;;;;10.10;5.97;;;18.60;99.90;;;;;;5057696;28;20224;-79
2023/07/09 03:57:30;;;;;;;13.00;6.40;;;18.60;99.90;;;;;;5057575;28;20227;-79
2023/07/09 03:59:56;;;;;;;11.65;6.28;;;18.60;99.90;;;;;;5076092;28;20166;-79
2023/07/09 04:02:22;;;;;;;13.57;6.28;;;18.50;99.90;;;;;;5075762;28;20170;-79
2023/07/09 04:04:48;;;;;;;13.07;5.95;;;18.60;99.90;;;;;;5057624;28;20248;-79
2023/07/09 04:07:15;;;;;;;8.80;5.80;;;18.70;99.90;;;;;;5075482;28;20185;-79
2023/07/09 04:09:41;;;;;;;10.77;5.75;;;18.80;99.90;;;;;;5057508;28;20178;-79
2023/07/09 04:12:07;;;;;;;9.70;6.00;;;18.80;99.90;;;;;;5057303;28;20184;-79
2023/07/09 04:14:34;;;;;;;11.80;5.43;;;18.80;99.90;;;;;;5075270;28;20206;-79
2023/07/09 04:17:00;;;;;;;11.30;6.30;;;18.70;99.90;;;;;;5057466;28;20180;-79
2023/07/09 04:19:25;;;;;;;11.65;6.00;;;18.60;99.90;;;;;;5075774;28;20174;-79
2023/07/09 04:21:51;;;;;;;8.35;5.30;;;18.50;99.90;;;;;;5075639;28;20158;-79
2023/07/09 04:24:18;;;;;;;11.05;5.57;;;18.50;99.90;;;;;;5075162;28;20702;-79
2023/07/09 04:26:44;;;;;;;13.05;6.80;;;18.50;99.90;;;;;;5075383;28;20206;-79
2023/07/09 04:29:10;;;;;;;10.38;6.30;;;18.50;99.90;;;;;;5075123;28;20191;-79
2023/07/09 04:31:37;;;;;;;10.90;6.47;;;18.40;99.90;;;;;;5075146;28;20186;-79
2023/07/09 04:34:04;;;;;;;11.43;6.35;;;18.40;99.90;;;;;;5074998;28;20565;-79
2023/07/09 04:36:31;;;;;;;12.23;6.28;;;18.40;99.90;;;;;;5056997;28;20182;-78
2023/07/09 04:38:57;;;;;;;9.20;5.95;;;18.40;99.90;;;;;;5057664;28;20173;-79
2023/07/09 04:41:27;;;;;;;11.48;6.30;;;18.50;99.90;;;;;;5057233;28;20537;-79
2023/07/09 04:43:52;;;;;;;9.50;6.07;;;18.60;99.90;;;;;;5056881;28;20201;-78
2023/07/09 04:46:18;;;;;;;11.80;5.85;;;18.70;99.90;;;;;;5056847;28;20182;-78
2023/07/09 04:48:44;;;;;;;10.95;6.32;;;18.70;99.90;;;;;;5075066;28;20173;-79
2023/07/09 04:51:10;;;;;;;8.98;6.30;;;18.70;99.90;;;;;;5075636;28;20210;-79
2023/07/09 04:53:36;;;;;;;11.27;6.28;;;18.70;99.90;;;;;;5075901;28;20205;-79
2023/07/09 04:56:02;;;;;;;10.95;7.07;;;18.70;99.90;;;;;;5056364;28;20169;-79
2023/07/09 04:58:29;;;;;;;11.52;6.57;;;18.80;99.90;;;;;;5056897;28;20702;-79
2023/07/09 05:00:59;;;;;;;11.23;6.22;;;18.80;99.90;;;;;;5074438;28;20178;-79
2023/07/09 05:03:25;;;;;;;11.18;6.85;;;18.80;99.90;;;;;;5074602;28;20273;-79
2023/07/09 05:05:50;;;;;;;9.98;6.20;;;18.90;99.90;;;;;;5056561;28;20673;-79
2023/07/09 05:08:17;;;;;;;12.05;6.53;;;19.00;99.90;;;;;;5074374;28;20193;-79
2023/07/09 05:10:44;;;;;;;11.93;6.88;;;19.00;99.90;;;;;;5058318;28;20264;-78
2023/07/09 05:13:10;;;;;;;9.75;6.13;;;19.10;99.90;;;;;;5057670;28;20272;-79
2023/07/09 05:15:39;;;;;;;9.93;6.05;;;19.20;99.90;;;;;;5058932;28;20296;-78
2023/07/09 05:18:05;;;;;;;12.15;7.10;;;19.20;99.90;;;;;;5057611;28;20260;-78
2023/07/09 05:20:31;;;;;;;12.23;6.43;;;19.20;99.90;;;;;;5057370;28;20279;-78
2023/07/09 05:22:56;;;;;;;12.43;5.80;;;19.30;99.90;;;;;;5057312;28;20197;-79
2023/07/09 05:25:22;;;;;;;10.23;6.47;;;19.30;99.90;;;;;;5074994;28;20194;-79
2023/07/09 05:27:48;;;;;;;14.68;6.20;;;19.40;99.90;;;;;;5074949;28;20177;-79
2023/07/09 05:30:14;;;;;;;13.52;6.50;;;19.60;99.90;;;;;;5056718;28;20672;-79
2023/07/09 05:32:40;;;;;;;10.35;6.32;;;19.70;99.90;;;;;;5056657;28;20177;-79
2023/07/09 05:35:06;;;;;;;9.23;5.93;;;19.80;99.90;;;;;;5056690;28;20296;-79
2023/07/09 05:37:32;;;;;;;9.40;6.05;;;20.00;99.90;;;;;;5074646;28;20180;-79
2023/07/09 05:39:58;;;;;;;12.93;6.25;;;20.00;99.90;;;;;;5074614;28;20253;-79
2023/07/09 05:42:23;;;;;;;10.95;6.28;;;20.10;99.90;;;;;;5056673;28;20185;-79
2023/07/09 05:44:49;;;;;;;11.65;6.38;;;20.20;99.90;;;;;;5075504;28;20195;-79
2023/07/09 05:47:15;;;;;;;10.10;5.70;;;20.20;99.90;;;;;;5076193;28;20178;-79
2023/07/09 05:49:41;;;;;;;8.88;5.80;;;20.30;99.90;;;;;;5057177;28;20204;-79
2023/07/09 05:52:07;;;;;;;9.23;5.78;;;20.50;99.90;;;;;;5058768;28;20177;-79
2023/07/09 05:54:33;;;;;;;10.68;6.18;;;20.60;99.90;;;;;;5056830;28;20245;-79
2023/07/09 05:56:59;;;;;;;11.95;5.93;;;20.70;99.90;;;;;;5056362;28;20172;-79
2023/07/09 05:59:24;;;;;;;10.75;6.07;;;20.80;99.90;;;;;;5056311;28;20178;-79
2023/07/09 06:01:50;;;;;;;11.82;6.00;;;20.80;99.90;;;;;;5074088;28;20665;-78
2023/07/09 06:04:16;;;;;;;11.15;6.07;;;20.90;99.90;;;;;;5056268;28;20697;-79
2023/07/09 06:06:42;;;;;;;9.70;5.95;;;20.90;99.90;;;;;;5056326;28;20190;-79
2023/07/09 06:09:10;;;;;;;10.50;6.25;;;21.00;99.90;;;;;;5078439;28;20672;-79
2023/07/09 06:11:36;;;;;;;10.98;6.35;;;21.10;99.90;;;;;;5077799;28;20526;-79
2023/07/09 06:14:02;;;;;;;9.65;6.40;;;21.20;99.90;;;;;;5059915;28;20288;-79
2023/07/09 06:16:28;;;;;;;8.13;5.20;;;21.30;99.90;;;;;;5060010;28;20208;-79
2023/07/09 06:18:54;;;;;;;10.50;5.97;;;21.30;99.90;;;;;;5060140;28;20618;-78
2023/07/09 06:21:20;;;;;;;10.63;6.05;;;21.50;99.90;;;;;;5059728;28;20197;-79
2023/07/09 06:23:46;;;;;;;11.15;5.90;;;21.60;99.90;;;;;;5077586;28;20170;-79
2023/07/09 06:26:12;;;;;;;9.73;5.60;;;21.70;99.90;;;;;;5077973;28;20177;-79
2023/07/09 06:28:38;;;;;;;9.63;5.63;;;21.70;99.90;;;;;;5059153;28;20170;-79
2023/07/09 06:31:04;;;;;;;9.73;6.13;;;21.80;99.90;;;;;;5059411;28;20178;-79
2023/07/09 06:33:30;;;;;;;9.43;5.93;;;21.90;99.90;;;;;;5059610;28;20201;-79
2023/07/09 06:36:00;;;;;;;9.25;6.05;;;21.90;99.90;;;;;;5060188;28;20582;-79
2023/07/09 06:38:27;;;;;;;10.13;6.53;;;22.00;99.90;;;;;;5059706;28;20170;-79
2023/07/09 06:40:53;;;;;;;11.50;6.80;;;22.10;99.90;;;;;;5059630;28;20176;-79
2023/07/09 06:43:19;;;;;;;12.05;6.57;;;22.20;99.90;;;;;;5078474;28;20221;-81
2023/07/09 06:45:59;;;;;;;11.60;6.28;;;22.30;99.90;;;;;;5061580;28;20552;-82
2023/07/09 06:48:43;;;;;;;13.60;6.50;;;22.50;99.90;;;;;;5080168;28;20154;-81
2023/07/09 06:51:21;;;;;;;11.50;6.47;;;22.70;99.90;;;;;;5060437;28;20213;-81
2023/07/09 06:53:50;;;;;;;8.57;5.70;;;22.80;99.90;;;;;;5080125;28;20193;-81
2023/07/09 06:56:16;;;;;;;10.57;6.22;;;22.90;99.90;;;;;;5061806;28;20178;-82
2023/07/09 06:58:42;;;;;;;13.35;6.30;;;23.00;99.90;;;;;;5079525;28;20245;-81
2023/07/09 07:01:10;;;;;;;10.63;6.50;;;23.20;99.90;;;;;;5065738;28;20205;-79
2023/07/09 07:03:37;;;;;;;11.73;5.80;;;23.30;99.90;;;;;;5079915;28;20217;-79
2023/07/09 07:06:03;;;;;;;12.55;6.72;;;23.40;99.90;;;;;;5079284;28;20181;-78
2023/07/09 07:08:29;;;;;;;9.80;5.93;;;23.50;99.90;;;;;;5060934;28;20255;-79
2023/07/09 07:11:02;;;;;;;11.80;6.80;;;23.60;99.90;;;;;;5078221;28;20166;-78
2023/07/09 07:13:34;;;;;;;12.15;6.63;;;23.70;99.90;;;;;;5058955;28;20202;-79
2023/07/09 07:16:01;;;;;;;11.15;6.32;;;23.80;99.90;;;;;;5077389;28;20170;-79
2023/07/09 07:18:26;;;;;;;12.95;6.18;;;23.90;99.90;;;;;;5076418;28;20663;-78
2023/07/09 07:20:52;;;;;;;9.45;5.90;;;24.10;99.90;;;;;;5058024;28;20284;-79
2023/07/09 07:23:18;;;;;;;11.93;6.20;;;24.20;99.90;;;;;;5076194;28;20245;-79
2023/07/09 07:25:47;;;;;;;12.07;6.15;;;24.30;99.90;;;;;;5058406;28;20178;-78
2023/07/09 07:28:14;;;;;;;10.43;6.35;;;24.40;99.90;;;;;;5058679;28;20174;-80
2023/07/09 07:30:42;;;;;;;10.80;6.20;;;24.50;99.90;;;;;;5078652;28;20253;-83
2023/07/09 07:33:07;;;;;;;8.32;5.72;;;24.60;99.90;;;;;;5079028;28;20188;-82
2023/07/09 07:35:33;;;;;;;10.63;6.30;;;24.70;99.90;;;;;;5061560;28;20193;-81
2023/07/09 07:37:59;;;;;;;11.00;6.60;;;24.80;97.30;;;;;;5078830;28;20154;-81
2023/07/09 07:40:25;;;;;;;13.95;7.07;;;24.90;99.90;;;;;;5061218;28;20525;-81
2023/07/09 07:42:51;;;;;;;10.18;6.20;;;25.00;99.90;;;;;;5061624;28;20639;-81
2023/07/09 07:45:17;;;;;;;11.05;6.88;;;25.10;99.90;;;;;;5060881;28;20693;-81
2023/07/09 07:47:43;;;;;;;10.00;6.25;;;25.20;99.90;;;;;;5078082;28;20253;-81
2023/07/09 07:50:10;;;;;;;9.60;6.35;;;25.40;83.90;;;;;;5060799;28;20189;-80
2023/07/09 07:52:37;;;;;;;10.82;6.55;;;25.50;99.90;;;;;;5076917;28;20174;-79
2023/07/09 07:55:07;;;;;;;12.15;6.18;;;25.60;99.90;;;;;;5076385;28;20205;-79
2023/07/09 07:57:33;;;;;;;13.38;6.55;;;25.70;99.90;;;;;;5075803;28;20168;-80
2023/07/09 07:59:59;;;;;;;15.23;7.35;;;25.80;99.90;;;;;;5058033;28;20219;-80
2023/07/09 08:02:25;;;;;;;11.90;6.40;;;25.90;95.00;;;;;;5076497;28;20572;-80
2023/07/09 08:04:51;;;;;;;10.05;6.50;;;26.00;99.90;;;;;;5076880;28;20197;-79
2023/07/09 08:07:18;;;;;;;11.65;6.20;;;26.10;66.30;;;;;;5058892;28;20277;-79
2023/07/09 08:09:46;;;;;;;14.98;6.95;;;26.20;76.30;;;;;;5076568;28;20154;-79
2023/07/09 08:12:12;;;;;;;10.73;6.50;;;26.30;1.00;;;;;;5057935;28;20257;-80
2023/07/09 08:14:40;;;;;;;11.18;6.72;;;26.50;34.30;;;;;;5075964;28;20201;-79
2023/07/09 08:17:07;;;;;;;9.60;6.53;;;26.80;1.00;;;;;;5057164;28;20657;-80
2023/07/09 08:19:47;;;;;;;14.77;7.38;;;26.90;1.00;;;;;;5075224;28;20174;-79
2023/07/09 08:22:14;;;;;;;11.27;6.18;;;27.10;1.00;;;;;;5057300;28;20174;-80
2023/07/09 08:24:40;;;;;;;12.50;7.03;;;27.20;1.00;;;;;;5057518;28;20204;-79
2023/07/09 08:27:10;;;;;;;11.05;6.82;;;27.20;99.90;;;;;;5057539;28;20185;-79
2023/07/09 08:29:36;;;;;;;11.43;6.65;;;27.30;99.90;;;;;;5075164;28;20557;-80
2023/07/09 08:32:02;;;;;;;12.27;6.80;;;27.40;1.00;;;;;;5058064;28;20184;-79
2023/07/09 08:34:28;;;;;;;11.13;6.40;;;27.60;99.90;;;;;;5078403;28;20696;-80
2023/07/09 08:36:54;;;;;;;10.23;5.95;;;27.70;99.90;;;;;;5078378;28;20181;-80
2023/07/09 08:39:19;;;;;;;13.48;6.45;;;27.80;1.00;;;;;;5077884;28;20174;-80
2023/07/09 08:41:52;;;;;;;8.75;6.32;;;27.90;16.90;;;;;;5077555;28;20223;-80
2023/07/09 08:44:34;;;;;;;13.43;7.47;;;28.10;1.00;;;;;;5059581;28;20738;-80
2023/07/09 08:47:07;;;;;;;10.25;6.80;;;28.30;1.00;;;;;;5077983;28;20187;-81
2023/07/09 08:49:45;;;;;;;9.35;5.63;;;28.40;1.00;;;;;;5079356;28;20228;-80
2023/07/09 08:52:23;;;;;;;10.15;6.18;;;28.50;1.00;;;;;;5081299;28;20165;-80
2023/07/09 08:54:50;;;;;;;11.30;6.90;;;28.60;1.00;;;;;;5079695;28;20260;-79
2023/07/09 08:57:24;;;;;;;12.93;6.60;;;28.70;34.60;;;;;;5062129;28;20231;-80
2023/07/09 08:59:55;;;;;;;11.30;6.53;;;28.80;1.00;;;;;;5060553;28;20174;-79
2023/07/09 09:02:41;;;;;;;13.45;7.30;;;29.10;1.00;;;;;;5059667;28;20166;-78
2023/07/09 09:05:09;;;;;;;9.95;6.70;;;29.20;47.60;;;;;;5060306;28;20612;-79
2023/07/09 09:07:44;;;;;;;11.45;7.13;;;29.30;99.90;;;;;;5063643;28;20257;-81
2023/07/09 09:10:19;;;;;;;10.40;6.50;;;29.60;1.00;;;;;;5058440;28;20165;-80
2023/07/09 09:13:01;;;;;;;9.63;6.60;;;29.80;99.90;;;;;;5078951;28;20161;-80
2023/07/09 09:15:27;;;;;;;13.00;6.95;;;30.00;1.00;;;;;;5059676;28;20276;-81
2023/07/09 09:18:00;;;;;;;10.10;7.10;;;30.10;1.00;;;;;;5077379;28;20673;-81
2023/07/09 09:20:28;;;;;;;12.55;7.15;;;30.20;99.90;;;;;;5058197;28;20220;-81
2023/07/09 09:23:15;;;;;;;11.63;6.85;;;30.30;99.90;;;;;;5075641;28;20168;-81
2023/07/09 09:25:54;;;;;;;10.05;6.80;;;30.50;1.00;;;;;;5076720;28;20162;-80
2023/07/09 09:28:22;;;;;;;10.77;6.90;;;30.70;1.00;;;;;;5059951;28;20219;-80
2023/07/09 09:30:48;;;;;;;12.25;7.47;;;30.90;1.00;;;;;;5060513;28;20592;-79
2023/07/09 09:33:17;;;;;;;9.95;6.90;;;31.00;99.90;;;;;;5075348;28;20205;-80
2023/07/09 09:35:44;;;;;;;11.60;7.20;;;31.20;99.90;;;;;;5074072;28;20200;-80
2023/07/09 09:38:21;;;;;;;8.88;6.10;;;31.30;99.90;;;;;;5074552;28;20170;-81
2023/07/09 09:40:47;;;;;;;12.02;6.43;;;31.40;99.90;;;;;;5056297;28;20162;-81
2023/07/09 09:43:19;;;;;;;9.80;6.07;;;31.50;99.90;;;;;;5076387;28;20170;-80
2023/07/09 09:45:48;;;;;;;10.13;6.30;;;31.70;1.00;;;;;;5078401;28;20641;-83
2023/07/09 09:48:17;;;;;;;11.45;6.55;;;31.70;99.90;;;;;;5060611;28;20272;-84
2023/07/09 09:50:45;;;;;;;9.48;6.50;;;31.80;99.90;;;;;;5060434;28;20173;-84
2023/07/09 09:53:22;;;;;;;11.82;6.53;;;31.90;1.00;;;;;;5078436;28;20539;-85
2023/07/09 09:55:49;;;;;;;8.93;6.35;;;32.10;99.90;;;;;;5060666;28;20243;-85
2023/07/09 09:58:17;;;;;;;11.38;6.25;;;32.10;99.90;;;;;;5078638;28;20581;-84
2023/07/09 10:00:52;;;;;;;9.82;6.10;;;32.10;99.90;;;;;;5060482;28;20261;-85
2023/07/09 10:03:19;;;;;;;9.73;6.15;;;32.00;1.00;;;;;;5060114;28;20186;-85
2023/07/09 10:05:51;;;;;;;8.27;5.47;;;32.00;1.00;;;;;;5059926;28;20222;-85
2023/07/09 10:08:38;;;;;;;9.48;5.43;;;31.90;99.90;;;;;;5078434;28;20191;-85
2023/07/09 10:11:19;;;;;;;11.50;6.85;;;32.20;99.90;;;;;;5060288;28;20162;-85
2023/07/09 10:13:47;;;;;;;8.93;5.45;;;32.30;99.90;;;;;;5060310;28;20339;-85
2023/07/09 10:16:35;;;;;;;10.50;6.13;;;32.50;99.90;;;;;;5078242;28;20170;-85
2023/07/09 10:19:23;;;;;;;10.52;5.93;;;32.60;99.90;;;;;;5059828;28;20264;-85
2023/07/09 10:22:21;;;;;;;7.20;5.53;;;32.70;99.90;;;;;;5060035;28;20162;-85
2023/07/09 10:25:18;;;;;;;9.68;5.45;;;32.80;99.90;;;;;;4989325;28;20262;-85
2023/07/09 10:28:22;;;;;;;8.75;5.40;;;33.00;5.60;;;;;;5077726;28;20189;-84
2023/07/09 10:31:08;;;;;;;9.65;5.68;;;33.00;99.90;;;;;;5054476;28;20556;-85
2023/07/09 10:33:56;;;;;;;11.43;5.72;;;32.90;1.00;;;;;;5077939;28;20189;-85
2023/07/09 10:36:44;;;;;;;11.35;5.72;;;32.90;1.00;;;;;;5060702;28;20189;-85
2023/07/09 10:39:44;;;;;;;10.38;5.25;;;32.80;99.90;;;;;;5077851;28;20150;-85
2023/07/09 10:42:25;;;;;;;10.85;5.22;;;32.90;99.90;;;;;;5073207;28;20186;-85
2023/07/09 10:45:26;;;;;;;8.50;5.15;;;33.00;99.90;;;;;;5077606;28;20264;-85
2023/07/09 10:48:00;;;;;;;12.60;5.78;;;33.10;99.90;;;;;;5055608;28;20181;-85
2023/07/09 10:50:40;;;;;;;8.15;5.30;;;33.30;99.90;;;;;;5059807;28;20170;-85
2023/07/09 10:53:21;;;;;;;8.35;5.05;;;33.40;82.40;;;;;;5059449;28;20170;-85
2023/07/09 10:56:21;;;;;;;12.23;5.68;;;33.40;98.00;;;;;;5059058;28;20193;-85
2023/07/09 10:59:26;;;;;;;7.32;5.10;;;33.20;99.90;;;;;;5077315;28;20193;-84
2023/07/09 11:02:00;;;;;;;11.77;6.03;;;33.30;99.90;;;;;;4980524;28;20204;-85
2023/07/09 11:04:35;;;;;;;9.65;5.35;;;33.40;99.90;;;;;;5066668;28;20303;-85
2023/07/09 11:07:06;;;;;;;7.80;4.97;;;33.40;99.90;;;;;;5059859;28;20243;-85
2023/07/09 11:09:35;;;;;;;9.50;5.20;;;33.40;99.90;;;;;;5059520;28;20253;-85
2023/07/09 11:12:22;;;;;;;9.65;5.55;;;33.60;99.90;;;;;;5059027;28;20268;-85
2023/07/09 11:14:53;;;;;;;8.60;5.47;;;33.50;39.40;;;;;;5077006;28;20208;-85
2023/07/09 11:17:21;;;;;;;8.63;5.03;;;33.40;9.40;;;;;;5059087;28;20169;-85
2023/07/09 11:19:54;;;;;;;9.98;5.18;;;33.40;99.90;;;;;;5059149;28;20193;-85
2023/07/09 11:22:25;;;;;;;13.02;5.72;;;33.40;26.50;;;;;;5059660;28;20268;-85
2023/07/09 11:25:10;;;;;;;9.23;5.40;;;33.60;99.90;;;;;;5077795;28;20193;-85
2023/07/09 11:27:55;;;;;;;7.60;5.10;;;33.70;99.90;;;;;;5060316;28;20649;-85
2023/07/09 11:30:26;;;;;;;8.40;5.03;;;33.90;99.90;;;;;;5062223;28;20268;-84
2023/07/09 11:32:58;;;;;;;8.60;4.95;;;33.90;99.90;;;;;;5064514;28;20638;-84
2023/07/09 11:35:27;;;;;;;10.20;5.28;;;34.10;99.90;;;;;;5082931;28;20202;-84
2023/07/09 11:37:55;;;;;;;13.40;4.13;;;34.10;99.90;;;;;;5065922;28;20182;-83
2023/07/09 11:40:22;;;;;;;7.90;4.47;;;34.30;99.90;;;;;;5059301;28;20181;-82
2023/07/09 11:42:54;;;;;;;6.25;4.30;;;34.30;84.10;;;;;;5059412;28;20170;-78
2023/07/09 11:45:32;;;;;;;6.75;4.75;;;34.50;99.90;;;;;;5075995;28;20204;-78
2023/07/09 11:48:27;;;;;;;9.52;4.00;;;34.50;99.90;;;;;;5081961;28;20197;-80
2023/07/09 11:50:55;;;;;;;8.52;4.45;;;34.70;99.90;;;;;;5087270;28;20496;-81
2023/07/09 11:53:23;;;;;;;10.38;4.88;;;34.70;99.90;;;;;;5081680;28;20165;-82
2023/07/09 11:55:49;;;;;;;6.13;4.78;;;34.70;99.90;;;;;;5062883;28;20205;-81
2023/07/09 11:58:17;;;;;;;10.25;4.25;;;34.80;99.90;;;;;;5062124;28;20184;-81
2023/07/09 12:00:56;;;;;;;6.07;3.90;;;34.90;99.90;;;;;;5080754;28;20635;-81
2023/07/09 12:03:36;;;;;;;9.45;4.55;;;35.10;1.00;;;;;;5061769;28;20197;-81
2023/07/09 12:06:24;;;;;;;8.23;3.80;;;35.20;99.90;;;;;;5080159;28;20181;-81
2023/07/09 12:08:51;;;;;;;6.57;4.32;;;35.30;1.00;;;;;;5060041;28;20227;-79
2023/07/09 12:11:27;;;;;;;8.98;4.45;;;35.40;1.00;;;;;;5057397;28;20589;-78
2023/07/09 12:13:54;;;;;;;8.93;4.30;;;35.40;1.00;;;;;;5056867;28;20228;-77
2023/07/09 12:16:31;;;;;;;7.40;4.15;;;35.10;1.00;;;;;;5075203;28;20184;-78
2023/07/09 12:18:57;;;;;;;8.32;4.50;;;35.20;99.90;;;;;;5075040;28;20162;-78
2023/07/09 12:21:25;;;;;;;8.00;4.10;;;35.00;99.90;;;;;;5057730;28;20193;-78
2023/07/09 12:23:54;;;;;;;8.55;4.38;;;35.00;1.00;;;;;;5075626;28;20193;-78
2023/07/09 12:26:20;;;;;;;7.65;4.18;;;34.90;1.00;;;;;;5076043;28;20204;-79
2023/07/09 12:28:56;;;;;;;8.55;4.72;;;34.90;1.00;;;;;;5075412;28;20181;-78
2023/07/09 12:31:28;;;;;;;9.25;4.32;;;34.80;1.00;;;;;;5077279;28;20211;-79
2023/07/09 12:33:57;;;;;;;8.52;4.05;;;35.00;1.00;;;;;;5059493;28;20614;-82
2023/07/09 12:36:25;;;;;;;7.93;4.55;;;35.10;1.00;;;;;;5076302;28;20189;-77
2023/07/09 12:38:55;;;;;;;7.70;4.10;;;35.00;1.00;;;;;;5058387;28;20618;-77
2023/07/09 12:41:53;;;;;;;7.40;4.38;;;34.90;5.10;;;;;;5057014;28;20174;-77
2023/07/09 12:44:21;;;;;;;7.85;4.35;;;35.10;99.90;;;;;;5059425;28;20233;-78
2023/07/09 12:46:49;;;;;;;11.05;4.57;;;35.20;99.90;;;;;;5059197;28;20220;-81
2023/07/09 12:49:29;;;;;;;6.50;4.53;;;35.20;99.90;;;;;;5060355;28;20196;-78
2023/07/09 12:52:00;;;;;;;8.05;4.78;;;35.30;99.90;;;;;;5058149;28;20222;-82
2023/07/09 12:54:29;;;;;;;7.88;4.30;;;35.40;99.90;;;;;;5057924;28;20304;-82
2023/07/09 12:56:56;;;;;;;8.07;4.25;;;35.40;99.90;;;;;;5058861;28;20166;-81
2023/07/09 12:59:27;;;;;;;6.57;4.35;;;35.40;99.90;;;;;;5057803;28;20172;-81